T/t Zenji — ZCXH2 — position and weather

sailwx.info

Track history (hours):
 
Tides and Currents Weather Stations Pressure Air Temp Water Temp Dewpoint Dewpoint Depression Visibility Wind Speed Wind Dir Waves Ship Positions

T/t Zenji

Last reported at 2015-Aug-04 23:32 UTC. Time now 2015-Aug-04 23:57 UTC.
Position N 41°19' W 070°06'.

Length 13 m.

Type: Pleasure craft. MMSI: 235007190.

Date/timePositionNaut miles runAvg speedWind from/ knotsBaromVisibWave heightAir tempDewpointWater temp
2015-Aug-04 23:32N 41°19' W 070°06'0 0.0
2015-Aug-04 22:31N 41°19' W 070°06'0 0.0
2015-Aug-04 21:31N 41°19' W 070°06'0 0.0
2015-Aug-04 20:31N 41°19' W 070°06'0 0.0
2015-Aug-04 19:31N 41°19' W 070°06'0 0.0
2015-Aug-04 18:31N 41°19' W 070°06'0 0.0
2015-Aug-04 17:31N 41°19' W 070°06'0 0.0
2015-Aug-04 16:28N 41°19' W 070°06'0 0.0
2015-Aug-04 15:25N 41°19' W 070°06'0 0.0
2015-Aug-04 09:17N 41°19' W 070°06'0 0.0
2015-Aug-04 08:29N 41°19' W 070°06'0 0.0
2015-Aug-04 07:32N 41°19' W 070°06'0 0.0
2015-Aug-04 06:32N 41°19' W 070°06'0 0.0
2015-Aug-04 05:32N 41°19' W 070°06'0 0.0
2015-Aug-04 04:32N 41°19' W 070°06'0 0.0
2015-Aug-04 03:26N 41°19' W 070°06'0 0.0
2015-Aug-04 02:32N 41°19' W 070°06'0 0.0
2015-Aug-04 01:32N 41°19' W 070°06'0 0.0
2015-Aug-04 00:32N 41°19' W 070°06'0 0.0
2015-Aug-03 23:29N 41°19' W 070°06'0 0.0
2015-Aug-03 22:32N 41°19' W 070°06'0 0.0
2015-Aug-03 21:32N 41°19' W 070°06'0 0.0
2015-Aug-03 20:29N 41°19' W 070°06'0 0.0
2015-Aug-03 19:32N 41°19' W 070°06'0 0.1
2015-Aug-03 18:33N 41°19' W 070°06'5 5.3
2015-Aug-03 17:33N 41°24' W 070°08'1010.2
2015-Aug-03 16:33N 41°27' W 070°21'1111.2
2015-Aug-03 15:33N 41°30' W 070°35'3 2.7
2015-Aug-03 14:33N 41°32' W 070°37'0 0.0
2015-Aug-03 13:33N 41°32' W 070°37'0 0.0
2015-Aug-03 12:33N 41°32' W 070°37'0 0.0
2015-Aug-03 11:34N 41°32' W 070°37'0 0.0
2015-Aug-03 10:33N 41°32' W 070°37'0 0.0
2015-Aug-03 09:33N 41°32' W 070°37'0 0.0
2015-Aug-03 08:33N 41°32' W 070°37'0 0.0
2015-Aug-03 07:33N 41°32' W 070°37'0 0.0
2015-Aug-03 06:33N 41°32' W 070°37'0 0.0
2015-Aug-03 05:33N 41°32' W 070°37'0 0.0
2015-Aug-03 04:33N 41°32' W 070°37'0 0.0
2015-Aug-03 03:33N 41°32' W 070°37'0 0.0
2015-Aug-03 02:33N 41°32' W 070°37'0 0.0
2015-Aug-03 01:33N 41°32' W 070°37'0 0.0
2015-Aug-03 00:33N 41°32' W 070°37'0 0.0
2015-Aug-02 23:33N 41°32' W 070°37'0 0.0
2015-Aug-02 22:33N 41°32' W 070°37'0 0.0
2015-Aug-02 21:33N 41°32' W 070°37'0 0.0
2015-Aug-02 20:33N 41°32' W 070°37'0 0.0
2015-Aug-02 19:22N 41°32' W 070°37'0 0.0
2015-Aug-02 18:27N 41°32' W 070°37'2 2.2
2015-Aug-02 17:32N 41°30' W 070°38'9 7.0
2015-Aug-02 16:18N 41°26' W 070°48'811.0
2015-Aug-02 15:33N 41°22' W 070°57'1110.8
2015-Aug-02 14:33N 41°23' W 071°11'8 7.9
2015-Aug-02 13:33N 41°24' W 071°22'6 5.5
2015-Aug-02 12:31N 41°29' W 071°19'0 0.0
2015-Aug-02 11:28N 41°29' W 071°19'0 0.0
2015-Aug-02 10:31N 41°29' W 071°19'0 0.0
2015-Aug-02 09:31N 41°29' W 071°19'0 0.0
2015-Aug-02 08:31N 41°29' W 071°19'0 0.0
2015-Aug-02 07:31N 41°29' W 071°19'0 0.0
2015-Aug-02 06:31N 41°29' W 071°19'0 0.0
2015-Aug-02 05:31N 41°29' W 071°19'0 0.0
2015-Aug-02 04:31N 41°29' W 071°19'0 0.0
2015-Aug-02 03:31N 41°29' W 071°19'0 0.0
2015-Aug-02 02:31N 41°29' W 071°19'0 0.0
2015-Aug-02 01:31N 41°29' W 071°19'0 0.0
2015-Aug-02 00:31N 41°29' W 071°19'0 0.0
2015-Aug-01 23:31N 41°29' W 071°19'0 0.0
2015-Aug-01 22:31N 41°29' W 071°19'0 0.0
2015-Aug-01 21:31N 41°29' W 071°19'0 0.0
2015-Aug-01 20:31N 41°29' W 071°19'0 0.0
2015-Aug-01 19:31N 41°29' W 071°19'0 0.0
2015-Aug-01 18:31N 41°29' W 071°19'0 0.0
2015-Aug-01 17:31N 41°29' W 071°19'0 0.0
2015-Aug-01 16:31N 41°29' W 071°19'0 0.0
2015-Aug-01 15:31N 41°29' W 071°19'0 0.0
2015-Aug-01 14:31N 41°29' W 071°19'0 0.0
2015-Aug-01 13:25N 41°29' W 071°19'0 0.0
2015-Aug-01 12:25N 41°29' W 071°19'0 0.0
2015-Aug-01 11:31N 41°29' W 071°19'0 0.0
2015-Aug-01 10:31N 41°29' W 071°19'0 0.0
2015-Aug-01 09:31N 41°29' W 071°19'0 0.0
2015-Aug-01 08:31N 41°29' W 071°19'0 0.0
2015-Aug-01 07:31N 41°29' W 071°19'0 0.0
2015-Aug-01 06:31N 41°29' W 071°19'0 0.0
2015-Aug-01 05:31N 41°29' W 071°19'0 0.0
2015-Aug-01 04:31N 41°29' W 071°19'0 0.0
2015-Aug-01 03:31N 41°29' W 071°19'0 0.0
2015-Aug-01 02:31N 41°29' W 071°19'0 0.0
2015-Aug-01 01:31N 41°29' W 071°19'0 0.0
2015-Aug-01 00:31N 41°29' W 071°19'0 0.0
2015-Jul-31 23:31N 41°29' W 071°19'0 0.0
2015-Jul-31 22:31N 41°29' W 071°19'0 0.0
2015-Jul-31 21:31N 41°29' W 071°19'0 0.0
2015-Jul-31 12:24N 41°29' W 071°19'0 0.0
2015-Jul-31 11:32N 41°29' W 071°19'0 0.0
2015-Jul-31 10:31N 41°29' W 071°19'0 0.0
2015-Jul-31 09:31N 41°29' W 071°19'0 0.0
2015-Jul-31 08:31N 41°29' W 071°19'0 0.0
2015-Jul-31 07:30N 41°29' W 071°19'0 0.0
2015-Jul-31 06:28N 41°29' W 071°19'0 0.0
2015-Jul-31 05:31N 41°29' W 071°19'0 0.0
2015-Jul-31 04:31N 41°29' W 071°19'0 0.0
2015-Jul-31 03:25N 41°29' W 071°19'0 0.0
2015-Jul-31 02:31N 41°29' W 071°19'0 0.0
2015-Jul-31 01:31N 41°29' W 071°19'0 0.0
2015-Jul-31 00:31N 41°29' W 071°19'0 0.0
2015-Jul-30 23:31N 41°29' W 071°19'0 0.0
2015-Jul-30 22:31N 41°29' W 071°19'0 0.0
2015-Jul-30 21:31N 41°29' W 071°19'0 0.0
2015-Jul-30 20:31N 41°29' W 071°19'0 0.0
2015-Jul-30 19:28N 41°29' W 071°19'0 0.0
2015-Jul-30 18:28N 41°29' W 071°19'0 0.0
2015-Jul-30 17:31N 41°29' W 071°19'0 0.0
2015-Jul-30 16:31N 41°29' W 071°19'0 0.0
2015-Jul-30 15:31N 41°29' W 071°19'0 0.0
2015-Jul-30 14:31N 41°29' W 071°19'0 0.0
2015-Jul-30 13:28N 41°29' W 071°19'0 0.0
2015-Jul-30 12:31N 41°29' W 071°19'0 0.0
2015-Jul-30 11:28N 41°29' W 071°19'0 0.0
2015-Jul-30 10:25N 41°29' W 071°19'0 0.0
2015-Jul-30 09:28N 41°29' W 071°19'0 0.0
2015-Jul-30 08:31N 41°29' W 071°19'0 0.0
2015-Jul-30 07:19N 41°29' W 071°19'0 0.0
2015-Jul-30 06:31N 41°29' W 071°19'0 0.0
2015-Jul-30 05:31N 41°29' W 071°19'0 0.0
2015-Jul-30 04:31N 41°29' W 071°19'0 0.0
2015-Jul-30 03:31N 41°29' W 071°19'0 0.0
2015-Jul-30 02:31N 41°29' W 071°19'0 0.0
2015-Jul-30 01:32N 41°29' W 071°19'0 0.0
2015-Jul-30 00:31N 41°29' W 071°19'0 0.0
2015-Jul-29 23:31N 41°29' W 071°19'0 0.0
2015-Jul-29 22:31N 41°29' W 071°19'0 0.0
2015-Jul-29 21:31N 41°29' W 071°19'0 0.0
2015-Jul-29 20:31N 41°29' W 071°19'0 0.0
2015-Jul-29 19:31N 41°29' W 071°19'0 0.0
2015-Jul-29 18:31N 41°29' W 071°19'0 0.0
2015-Jul-29 17:31N 41°29' W 071°19'0 0.0
2015-Jul-29 16:31N 41°29' W 071°19'0 0.0
2015-Jul-29 15:31N 41°29' W 071°19'0 0.0
2015-Jul-29 14:32N 41°29' W 071°19'0 0.0
2015-Jul-29 13:30N 41°29' W 071°19'0 0.0
2015-Jul-29 12:32N 41°29' W 071°19'0 0.0
2015-Jul-29 11:28N 41°29' W 071°19'0 0.0
2015-Jul-29 10:31N 41°29' W 071°19'0 0.0
2015-Jul-29 09:31N 41°29' W 071°19'0 0.0
2015-Jul-29 08:31N 41°29' W 071°19'0 0.0
2015-Jul-29 07:31N 41°29' W 071°19'0 0.0
2015-Jul-29 06:31N 41°29' W 071°19'0 0.0
2015-Jul-29 05:31N 41°29' W 071°19'0 0.0
2015-Jul-29 04:31N 41°29' W 071°19'0 0.0
2015-Jul-29 03:31N 41°29' W 071°19'0 0.0
2015-Jul-29 02:31N 41°29' W 071°19'0 0.0
2015-Jul-29 01:31N 41°29' W 071°19'0 0.0
2015-Jul-29 00:31N 41°29' W 071°19'0 0.0
2015-Jul-28 23:31N 41°29' W 071°19'0 0.0
2015-Jul-28 22:28N 41°29' W 071°19'0 0.0
2015-Jul-28 21:31N 41°29' W 071°19'0 0.0
2015-Jul-28 20:25N 41°29' W 071°19'0 0.0
2015-Jul-28 19:31N 41°29' W 071°19'0 0.0
2015-Jul-28 18:31N 41°29' W 071°19'0 0.0
2015-Jul-28 17:16N 41°29' W 071°19'0 0.0
2015-Jul-28 16:31N 41°29' W 071°19'0 0.0
2015-Jul-28 15:28N 41°29' W 071°19'0 0.0
2015-Jul-28 14:28N 41°29' W 071°19'0 0.0
2015-Jul-28 13:28N 41°29' W 071°19'0 0.0
2015-Jul-28 12:31N 41°29' W 071°19'0 0.0
2015-Jul-28 11:31N 41°29' W 071°19'0 0.0
2015-Jul-28 10:31N 41°29' W 071°19'0 0.0
2015-Jul-28 09:31N 41°29' W 071°19'0 0.0
2015-Jul-28 08:28N 41°29' W 071°19'0 0.0
2015-Jul-28 07:31N 41°29' W 071°19'0 0.0
2015-Jul-28 06:28N 41°29' W 071°19'0 0.0
2015-Jul-28 05:28N 41°29' W 071°19'0 0.0
2015-Jul-28 04:31N 41°29' W 071°19'0 0.0
2015-Jul-28 03:31N 41°29' W 071°19'0 0.0
2015-Jul-28 02:31N 41°29' W 071°19'0 0.0
2015-Jul-28 01:31N 41°29' W 071°19'0 0.0
2015-Jul-28 00:31N 41°29' W 071°19'0 0.0
2015-Jul-27 23:31N 41°29' W 071°19'0 0.0
2015-Jul-27 22:31N 41°29' W 071°19'0 0.0
2015-Jul-27 21:31N 41°29' W 071°19'0 0.0
2015-Jul-27 20:31N 41°29' W 071°19'0 0.0
2015-Jul-27 19:31N 41°29' W 071°19'0 0.0
2015-Jul-27 18:16N 41°29' W 071°19'0 0.0
2015-Jul-27 17:31N 41°29' W 071°19'0 0.0
2015-Jul-27 16:31N 41°29' W 071°19'0 0.0
2015-Jul-27 15:28N 41°29' W 071°19'0 0.0
2015-Jul-27 14:31N 41°29' W 071°19'0 0.0
2015-Jul-27 13:22N 41°29' W 071°19'0 0.0
2015-Jul-27 12:31N 41°29' W 071°19'0 0.0
2015-Jul-27 06:28N 41°29' W 071°19'  
Track history (hours):
 
Tides and Currents Weather Stations Pressure Air Temp Water Temp Dewpoint Dewpoint Depression Visibility Wind Speed Wind Dir Waves Ship Positions

T/t Zenji

Last reported at 2015-Aug-04 23:32 UTC. Time now 2015-Aug-04 23:57 UTC.
Position N 41°19' W 070°06'.

Length 13 m.

Type: Pleasure craft. MMSI: 235007190.

Date/timePositionNaut miles runAvg speedWind from/ knotsBaromVisibWave heightAir tempDewpointWater temp
2015-Aug-04 23:32N 41°19' W 070°06'0 0.0
2015-Aug-04 22:31N 41°19' W 070°06'0 0.0
2015-Aug-04 21:31N 41°19' W 070°06'0 0.0
2015-Aug-04 20:31N 41°19' W 070°06'0 0.0
2015-Aug-04 19:31N 41°19' W 070°06'0 0.0
2015-Aug-04 18:31N 41°19' W 070°06'0 0.0
2015-Aug-04 17:31N 41°19' W 070°06'0 0.0
2015-Aug-04 16:28N 41°19' W 070°06'0 0.0
2015-Aug-04 15:25N 41°19' W 070°06'0 0.0
2015-Aug-04 09:17N 41°19' W 070°06'0 0.0
2015-Aug-04 08:29N 41°19' W 070°06'0 0.0
2015-Aug-04 07:32N 41°19' W 070°06'0 0.0
2015-Aug-04 06:32N 41°19' W 070°06'0 0.0
2015-Aug-04 05:32N 41°19' W 070°06'0 0.0
2015-Aug-04 04:32N 41°19' W 070°06'0 0.0
2015-Aug-04 03:26N 41°19' W 070°06'0 0.0
2015-Aug-04 02:32N 41°19' W 070°06'0 0.0
2015-Aug-04 01:32N 41°19' W 070°06'0 0.0
2015-Aug-04 00:32N 41°19' W 070°06'0 0.0
2015-Aug-03 23:29N 41°19' W 070°06'0 0.0
2015-Aug-03 22:32N 41°19' W 070°06'0 0.0
2015-Aug-03 21:32N 41°19' W 070°06'0 0.0
2015-Aug-03 20:29N 41°19' W 070°06'0 0.0
2015-Aug-03 19:32N 41°19' W 070°06'0 0.1
2015-Aug-03 18:33N 41°19' W 070°06'5 5.3
2015-Aug-03 17:33N 41°24' W 070°08'1010.2
2015-Aug-03 16:33N 41°27' W 070°21'1111.2
2015-Aug-03 15:33N 41°30' W 070°35'3 2.7
2015-Aug-03 14:33N 41°32' W 070°37'0 0.0
2015-Aug-03 13:33N 41°32' W 070°37'0 0.0
2015-Aug-03 12:33N 41°32' W 070°37'0 0.0
2015-Aug-03 11:34N 41°32' W 070°37'0 0.0
2015-Aug-03 10:33N 41°32' W 070°37'0 0.0
2015-Aug-03 09:33N 41°32' W 070°37'0 0.0
2015-Aug-03 08:33N 41°32' W 070°37'0 0.0
2015-Aug-03 07:33N 41°32' W 070°37'0 0.0
2015-Aug-03 06:33N 41°32' W 070°37'0 0.0
2015-Aug-03 05:33N 41°32' W 070°37'0 0.0
2015-Aug-03 04:33N 41°32' W 070°37'0 0.0
2015-Aug-03 03:33N 41°32' W 070°37'0 0.0
2015-Aug-03 02:33N 41°32' W 070°37'0 0.0
2015-Aug-03 01:33N 41°32' W 070°37'0 0.0
2015-Aug-03 00:33N 41°32' W 070°37'0 0.0
2015-Aug-02 23:33N 41°32' W 070°37'0 0.0
2015-Aug-02 22:33N 41°32' W 070°37'0 0.0
2015-Aug-02 21:33N 41°32' W 070°37'0 0.0
2015-Aug-02 20:33N 41°32' W 070°37'0 0.0
2015-Aug-02 19:22N 41°32' W 070°37'0 0.0
2015-Aug-02 18:27N 41°32' W 070°37'2 2.2
2015-Aug-02 17:32N 41°30' W 070°38'9 7.0
2015-Aug-02 16:18N 41°26' W 070°48'811.0
2015-Aug-02 15:33N 41°22' W 070°57'1110.8
2015-Aug-02 14:33N 41°23' W 071°11'8 7.9
2015-Aug-02 13:33N 41°24' W 071°22'6 5.5
2015-Aug-02 12:31N 41°29' W 071°19'0 0.0
2015-Aug-02 11:28N 41°29' W 071°19'0 0.0
2015-Aug-02 10:31N 41°29' W 071°19'0 0.0
2015-Aug-02 09:31N 41°29' W 071°19'0 0.0
2015-Aug-02 08:31N 41°29' W 071°19'0 0.0
2015-Aug-02 07:31N 41°29' W 071°19'0 0.0
2015-Aug-02 06:31N 41°29' W 071°19'0 0.0
2015-Aug-02 05:31N 41°29' W 071°19'0 0.0
2015-Aug-02 04:31N 41°29' W 071°19'0 0.0
2015-Aug-02 03:31N 41°29' W 071°19'0 0.0
2015-Aug-02 02:31N 41°29' W 071°19'0 0.0
2015-Aug-02 01:31N 41°29' W 071°19'0 0.0
2015-Aug-02 00:31N 41°29' W 071°19'0 0.0
2015-Aug-01 23:31N 41°29' W 071°19'0 0.0
2015-Aug-01 22:31N 41°29' W 071°19'0 0.0
2015-Aug-01 21:31N 41°29' W 071°19'0 0.0
2015-Aug-01 20:31N 41°29' W 071°19'0 0.0
2015-Aug-01 19:31N 41°29' W 071°19'0 0.0
2015-Aug-01 18:31N 41°29' W 071°19'0 0.0
2015-Aug-01 17:31N 41°29' W 071°19'0 0.0
2015-Aug-01 16:31N 41°29' W 071°19'0 0.0
2015-Aug-01 15:31N 41°29' W 071°19'0 0.0
2015-Aug-01 14:31N 41°29' W 071°19'0 0.0
2015-Aug-01 13:25N 41°29' W 071°19'0 0.0
2015-Aug-01 12:25N 41°29' W 071°19'0 0.0
2015-Aug-01 11:31N 41°29' W 071°19'0 0.0
2015-Aug-01 10:31N 41°29' W 071°19'0 0.0
2015-Aug-01 09:31N 41°29' W 071°19'0 0.0
2015-Aug-01 08:31N 41°29' W 071°19'0 0.0
2015-Aug-01 07:31N 41°29' W 071°19'0 0.0
2015-Aug-01 06:31N 41°29' W 071°19'0 0.0
2015-Aug-01 05:31N 41°29' W 071°19'0 0.0
2015-Aug-01 04:31N 41°29' W 071°19'0 0.0
2015-Aug-01 03:31N 41°29' W 071°19'0 0.0
2015-Aug-01 02:31N 41°29' W 071°19'0 0.0
2015-Aug-01 01:31N 41°29' W 071°19'0 0.0
2015-Aug-01 00:31N 41°29' W 071°19'0 0.0
2015-Jul-31 23:31N 41°29' W 071°19'0 0.0
2015-Jul-31 22:31N 41°29' W 071°19'0 0.0
2015-Jul-31 21:31N 41°29' W 071°19'0 0.0
2015-Jul-31 12:24N 41°29' W 071°19'0 0.0
2015-Jul-31 11:32N 41°29' W 071°19'0 0.0
2015-Jul-31 10:31N 41°29' W 071°19'0 0.0
2015-Jul-31 09:31N 41°29' W 071°19'0 0.0
2015-Jul-31 08:31N 41°29' W 071°19'0 0.0
2015-Jul-31 07:30N 41°29' W 071°19'0 0.0
2015-Jul-31 06:28N 41°29' W 071°19'0 0.0
2015-Jul-31 05:31N 41°29' W 071°19'0 0.0
2015-Jul-31 04:31N 41°29' W 071°19'0 0.0
2015-Jul-31 03:25N 41°29' W 071°19'0 0.0
2015-Jul-31 02:31N 41°29' W 071°19'0 0.0
2015-Jul-31 01:31N 41°29' W 071°19'0 0.0
2015-Jul-31 00:31N 41°29' W 071°19'0 0.0
2015-Jul-30 23:31N 41°29' W 071°19'0 0.0
2015-Jul-30 22:31N 41°29' W 071°19'0 0.0
2015-Jul-30 21:31N 41°29' W 071°19'0 0.0
2015-Jul-30 20:31N 41°29' W 071°19'0 0.0
2015-Jul-30 19:28N 41°29' W 071°19'0 0.0
2015-Jul-30 18:28N 41°29' W 071°19'0 0.0
2015-Jul-30 17:31N 41°29' W 071°19'0 0.0
2015-Jul-30 16:31N 41°29' W 071°19'0 0.0
2015-Jul-30 15:31N 41°29' W 071°19'0 0.0
2015-Jul-30 14:31N 41°29' W 071°19'0 0.0
2015-Jul-30 13:28N 41°29' W 071°19'0 0.0
2015-Jul-30 12:31N 41°29' W 071°19'0 0.0
2015-Jul-30 11:28N 41°29' W 071°19'0 0.0
2015-Jul-30 10:25N 41°29' W 071°19'0 0.0
2015-Jul-30 09:28N 41°29' W 071°19'0 0.0
2015-Jul-30 08:31N 41°29' W 071°19'0 0.0
2015-Jul-30 07:19N 41°29' W 071°19'0 0.0
2015-Jul-30 06:31N 41°29' W 071°19'0 0.0
2015-Jul-30 05:31N 41°29' W 071°19'0 0.0
2015-Jul-30 04:31N 41°29' W 071°19'0 0.0
2015-Jul-30 03:31N 41°29' W 071°19'0 0.0
2015-Jul-30 02:31N 41°29' W 071°19'0 0.0
2015-Jul-30 01:32N 41°29' W 071°19'0 0.0
2015-Jul-30 00:31N 41°29' W 071°19'0 0.0
2015-Jul-29 23:31N 41°29' W 071°19'0 0.0
2015-Jul-29 22:31N 41°29' W 071°19'0 0.0
2015-Jul-29 21:31N 41°29' W 071°19'0 0.0
2015-Jul-29 20:31N 41°29' W 071°19'0 0.0
2015-Jul-29 19:31N 41°29' W 071°19'0 0.0
2015-Jul-29 18:31N 41°29' W 071°19'0 0.0
2015-Jul-29 17:31N 41°29' W 071°19'0 0.0
2015-Jul-29 16:31N 41°29' W 071°19'0 0.0
2015-Jul-29 15:31N 41°29' W 071°19'0 0.0
2015-Jul-29 14:32N 41°29' W 071°19'0 0.0
2015-Jul-29 13:30N 41°29' W 071°19'0 0.0
2015-Jul-29 12:32N 41°29' W 071°19'0 0.0
2015-Jul-29 11:28N 41°29' W 071°19'0 0.0
2015-Jul-29 10:31N 41°29' W 071°19'0 0.0
2015-Jul-29 09:31N 41°29' W 071°19'0 0.0
2015-Jul-29 08:31N 41°29' W 071°19'0 0.0
2015-Jul-29 07:31N 41°29' W 071°19'0 0.0
2015-Jul-29 06:31N 41°29' W 071°19'0 0.0
2015-Jul-29 05:31N 41°29' W 071°19'0 0.0
2015-Jul-29 04:31N 41°29' W 071°19'0 0.0
2015-Jul-29 03:31N 41°29' W 071°19'0 0.0
2015-Jul-29 02:31N 41°29' W 071°19'0 0.0
2015-Jul-29 01:31N 41°29' W 071°19'0 0.0
2015-Jul-29 00:31N 41°29' W 071°19'0 0.0
2015-Jul-28 23:31N 41°29' W 071°19'0 0.0
2015-Jul-28 22:28N 41°29' W 071°19'0 0.0
2015-Jul-28 21:31N 41°29' W 071°19'0 0.0
2015-Jul-28 20:25N 41°29' W 071°19'0 0.0
2015-Jul-28 19:31N 41°29' W 071°19'0 0.0
2015-Jul-28 18:31N 41°29' W 071°19'0 0.0
2015-Jul-28 17:16N 41°29' W 071°19'0 0.0
2015-Jul-28 16:31N 41°29' W 071°19'0 0.0
2015-Jul-28 15:28N 41°29' W 071°19'0 0.0
2015-Jul-28 14:28N 41°29' W 071°19'0 0.0
2015-Jul-28 13:28N 41°29' W 071°19'0 0.0
2015-Jul-28 12:31N 41°29' W 071°19'0 0.0
2015-Jul-28 11:31N 41°29' W 071°19'0 0.0
2015-Jul-28 10:31N 41°29' W 071°19'0 0.0
2015-Jul-28 09:31N 41°29' W 071°19'0 0.0
2015-Jul-28 08:28N 41°29' W 071°19'0 0.0
2015-Jul-28 07:31N 41°29' W 071°19'0 0.0
2015-Jul-28 06:28N 41°29' W 071°19'0 0.0
2015-Jul-28 05:28N 41°29' W 071°19'0 0.0
2015-Jul-28 04:31N 41°29' W 071°19'0 0.0
2015-Jul-28 03:31N 41°29' W 071°19'0 0.0
2015-Jul-28 02:31N 41°29' W 071°19'0 0.0
2015-Jul-28 01:31N 41°29' W 071°19'0 0.0
2015-Jul-28 00:31N 41°29' W 071°19'0 0.0
2015-Jul-27 23:31N 41°29' W 071°19'0 0.0
2015-Jul-27 22:31N 41°29' W 071°19'0 0.0
2015-Jul-27 21:31N 41°29' W 071°19'0 0.0
2015-Jul-27 20:31N 41°29' W 071°19'0 0.0
2015-Jul-27 19:31N 41°29' W 071°19'0 0.0
2015-Jul-27 18:16N 41°29' W 071°19'0 0.0
2015-Jul-27 17:31N 41°29' W 071°19'0 0.0
2015-Jul-27 16:31N 41°29' W 071°19'0 0.0
2015-Jul-27 15:28N 41°29' W 071°19'0 0.0
2015-Jul-27 14:31N 41°29' W 071°19'0 0.0
2015-Jul-27 13:22N 41°29' W 071°19'0 0.0
2015-Jul-27 12:31N 41°29' W 071°19'0 0.0
2015-Jul-27 06:28N 41°29' W 071°19'  

Dump ship's entire track history